Terminal Aerodrome Forecast
Issued by NWS Tampa Bay Area, FL

Current Version | Previous Version | Text Only | Print | Product List | Glossary On
Versions: 1 2 3 4 5 6 7 8 9 10 11 12
000
FTUS42 KTBW 010500
TAFFMY
TAF
KFMY 010540Z 0106/0206 VRB03KT P6SM VCSH SCT015 SCT080
     FM011500 25006KT P6SM VCTS SCT025CB BKN080
     FM012000 27008KT P6SM VCTS SCT030CB BKN080
     FM020200 VRB04KT P6SM FEW025 SCT250=

USA.gov is the U.S. government's official web portal to all federal, state and local government web resources and services.